createdAt,value
2023-01-19T00:00:56.349Z,99178.19
2023-01-19T00:03:24.491Z,99169.50
2023-01-19T00:05:52.836Z,99157.28
2023-01-19T00:08:21.090Z,99160.53
2023-01-19T00:10:52.294Z,99134.41
2023-01-19T00:13:21.881Z,99168.19
2023-01-19T00:15:50.382Z,99150.22
2023-01-19T00:18:18.539Z,99148.44
2023-01-19T00:20:46.831Z,99129.72
2023-01-19T00:23:15.225Z,99142.50
2023-01-19T00:25:43.796Z,99155.00
2023-01-19T00:28:12.385Z,99150.03
2023-01-19T00:30:42.353Z,99141.50
2023-01-19T00:33:10.848Z,99131.66
2023-01-19T00:35:38.930Z,99133.44
2023-01-19T00:38:07.096Z,99122.94
2023-01-19T00:40:35.296Z,99121.72
2023-01-19T00:43:04.307Z,99118.53
2023-01-19T00:45:32.624Z,99102.63
2023-01-19T00:48:02.116Z,99107.84
2023-01-19T00:50:31.104Z,99110.31
2023-01-19T00:53:01.373Z,99112.41
2023-01-19T00:55:30.089Z,99116.75
2023-01-19T00:57:58.483Z,99132.25
2023-01-19T01:00:26.902Z,99120.63
2023-01-19T01:02:55.120Z,99117.19
2023-01-19T01:05:24.678Z,99107.75
2023-01-19T01:07:52.789Z,99139.06
2023-01-19T01:10:22.314Z,99121.81
2023-01-19T01:12:57.493Z,99123.09
2023-01-19T01:15:27.684Z,99119.38
2023-01-19T01:17:56.000Z,99126.16
2023-01-19T01:20:27.969Z,99127.22
2023-01-19T01:22:56.942Z,99104.00
2023-01-19T01:25:27.372Z,99097.38
2023-01-19T01:27:56.055Z,99100.41
2023-01-19T01:30:24.635Z,99087.72
2023-01-19T01:32:52.813Z,99109.00
2023-01-19T01:35:21.032Z,99101.31
2023-01-19T01:37:50.625Z,99102.09
2023-01-19T01:40:19.465Z,99107.84
2023-01-19T01:42:47.507Z,99092.75
2023-01-19T01:45:29.970Z,99103.16
2023-01-19T01:47:59.798Z,99111.97
2023-01-19T01:50:30.506Z,99090.00
2023-01-19T01:53:07.573Z,99107.69
2023-01-19T01:55:38.078Z,99128.16
2023-01-19T01:58:07.087Z,99101.06
2023-01-19T02:00:55.277Z,99125.81
2023-01-19T02:03:23.875Z,99120.31
2023-01-19T02:05:53.200Z,99107.91
2023-01-19T02:08:45.289Z,99124.34
2023-01-19T02:11:31.081Z,99104.66
2023-01-19T02:13:59.399Z,99094.63
2023-01-19T02:16:27.626Z,99113.91
2023-01-19T02:18:55.794Z,99134.56
2023-01-19T02:21:25.300Z,99132.13
2023-01-19T02:23:55.955Z,99118.94
2023-01-19T02:26:25.702Z,99128.44
2023-01-19T02:28:55.117Z,99121.25
2023-01-19T02:31:23.354Z,99131.31
2023-01-19T02:33:51.928Z,99110.69
2023-01-19T02:36:23.993Z,99104.13
2023-01-19T02:38:53.031Z,99094.09
2023-01-19T02:41:24.597Z,99070.34
2023-01-19T02:43:54.050Z,99077.81
2023-01-19T02:46:22.324Z,99108.47
2023-01-19T02:48:50.456Z,99094.63
2023-01-19T02:51:19.421Z,99092.03
2023-01-19T02:54:00.241Z,99087.16
2023-01-19T02:56:37.262Z,99106.16
2023-01-19T02:59:08.037Z,99115.34
2023-01-19T03:01:42.316Z,99118.25
2023-01-19T03:04:14.741Z,99139.75
2023-01-19T03:06:46.019Z,99146.84
2023-01-19T03:09:19.969Z,99137.69
2023-01-19T03:11:53.582Z,99136.56
2023-01-19T03:14:24.474Z,99124.81
2023-01-19T03:16:55.261Z,99126.91
2023-01-19T03:19:24.994Z,99125.19
2023-01-19T03:21:55.069Z,99123.88
2023-01-19T03:24:24.010Z,99118.66
2023-01-19T03:26:56.602Z,99115.81
2023-01-19T03:29:26.010Z,99108.97
2023-01-19T03:31:55.095Z,99127.63
2023-01-19T03:34:24.279Z,99118.66
2023-01-19T03:36:54.222Z,99114.91
2023-01-19T03:39:23.791Z,99126.56
2023-01-19T03:41:54.397Z,99121.56
2023-01-19T03:44:22.585Z,99115.06
2023-01-19T03:46:50.949Z,99120.25
2023-01-19T03:49:19.172Z,99135.97
2023-01-19T03:51:47.510Z,99143.03
2023-01-19T03:54:17.801Z,99163.25
2023-01-19T03:56:45.990Z,99151.00
2023-01-19T03:59:17.624Z,99149.94
2023-01-19T04:01:46.003Z,99176.63
2023-01-19T04:04:15.602Z,99180.00
2023-01-19T04:06:43.979Z,99190.66
2023-01-19T04:09:12.062Z,99179.25
2023-01-19T04:11:40.190Z,99170.41
2023-01-19T04:14:08.358Z,99166.94
2023-01-19T04:16:37.997Z,99163.75
2023-01-19T04:19:06.408Z,99184.88
2023-01-19T04:21:35.068Z,99164.56
2023-01-19T04:24:03.159Z,99167.47
2023-01-19T04:26:31.302Z,99188.13
2023-01-19T04:28:59.634Z,99178.22
2023-01-19T04:31:27.738Z,99142.84
2023-01-19T04:33:58.444Z,99214.44
2023-01-19T04:36:26.594Z,99208.06
2023-01-19T04:38:54.908Z,99213.25
2023-01-19T04:41:23.073Z,99212.72
2023-01-19T04:43:51.381Z,99200.75
2023-01-19T04:46:19.477Z,99208.69
2023-01-19T04:48:47.615Z,99224.06
2023-01-19T04:51:17.125Z,99214.13
2023-01-19T04:53:45.255Z,99211.88
2023-01-19T04:56:13.312Z,99215.53
2023-01-19T04:58:41.995Z,99230.59
2023-01-19T05:01:10.234Z,99229.34
2023-01-19T05:03:38.360Z,99216.78
2023-01-19T05:06:06.672Z,99213.34
2023-01-19T05:08:36.311Z,99218.19
2023-01-19T05:11:04.499Z,99207.34
2023-01-19T05:13:33.595Z,99193.09
2023-01-19T05:16:01.883Z,99196.34
2023-01-19T05:18:30.086Z,99197.25
2023-01-19T05:20:58.154Z,99203.19
2023-01-19T05:23:26.262Z,99207.50
2023-01-19T05:25:56.902Z,99213.13
2023-01-19T05:28:24.991Z,99225.31
2023-01-19T05:30:53.072Z,99229.50
2023-01-19T05:33:21.663Z,99237.78
2023-01-19T05:35:50.793Z,99240.72
2023-01-19T05:38:23.365Z,99242.00
2023-01-19T05:40:59.695Z,99251.78
2023-01-19T05:43:27.864Z,99247.88
2023-01-19T05:45:55.920Z,99243.25
2023-01-19T05:48:24.053Z,99256.13
2023-01-19T05:50:52.125Z,99242.00
2023-01-19T05:53:20.530Z,99254.13
2023-01-19T05:55:48.596Z,99259.94
2023-01-19T05:58:18.317Z,99260.47
2023-01-19T06:00:46.448Z,99270.03
2023-01-19T06:03:14.533Z,99264.16
2023-01-19T06:05:42.698Z,99267.81
2023-01-19T06:08:10.785Z,99278.31
2023-01-19T06:10:39.010Z,99269.63
2023-01-19T06:13:07.497Z,99282.59
2023-01-19T06:15:37.701Z,99287.44
2023-01-19T06:18:05.880Z,99291.50
2023-01-19T06:20:34.048Z,99312.09
2023-01-19T06:23:02.446Z,99312.63
2023-01-19T06:25:30.833Z,99304.81
2023-01-19T06:27:59.022Z,99311.72
2023-01-19T06:30:27.182Z,99321.25
2023-01-19T06:32:56.792Z,99299.00
2023-01-19T06:35:24.970Z,99317.56
2023-01-19T06:37:53.711Z,99324.06
2023-01-19T06:40:21.826Z,99332.66
2023-01-19T06:42:50.302Z,99335.84
2023-01-19T06:45:18.516Z,99318.00
2023-01-19T06:47:48.595Z,99327.47
2023-01-19T06:50:18.364Z,99333.91
2023-01-19T06:52:46.570Z,99319.34
2023-01-19T06:55:14.698Z,99323.13
2023-01-19T06:57:44.536Z,99319.78
2023-01-19T07:00:13.732Z,99315.31
2023-01-19T07:02:43.653Z,99318.63
2023-01-19T07:06:25.839Z,99327.53
2023-01-19T07:08:55.563Z,99312.03
2023-01-19T07:11:31.020Z,99335.13
2023-01-19T07:14:01.579Z,99335.06
2023-01-19T07:16:30.185Z,99331.03
2023-01-19T07:18:58.641Z,99310.50
2023-01-19T07:21:29.355Z,99310.63
2023-01-19T07:23:58.495Z,99330.84
2023-01-19T07:26:28.095Z,99341.53
2023-01-19T07:28:57.717Z,99344.41
2023-01-19T07:31:26.445Z,99337.75
2023-01-19T07:33:55.097Z,99346.69
2023-01-19T07:36:23.501Z,99353.53
2023-01-19T07:38:53.368Z,99337.31
2023-01-19T07:41:21.826Z,99364.34
2023-01-19T07:43:53.375Z,99352.59
2023-01-19T07:46:24.225Z,99353.78
2023-01-19T07:48:52.641Z,99353.44
2023-01-19T07:51:21.063Z,99346.09
2023-01-19T07:53:52.590Z,99366.81
2023-01-19T07:56:22.110Z,99405.31
2023-01-19T07:58:52.602Z,99412.72
2023-01-19T08:01:21.261Z,99401.38
2023-01-19T08:03:50.282Z,99413.75
2023-01-19T08:06:22.151Z,99415.81
2023-01-19T08:08:52.481Z,99415.59
2023-01-19T08:11:23.799Z,99418.66
2023-01-19T08:13:52.284Z,99397.88
2023-01-19T08:16:20.711Z,99384.53
2023-01-19T08:18:49.140Z,99416.34
2023-01-19T08:21:17.751Z,99414.03
2023-01-19T08:23:46.033Z,99421.16
2023-01-19T08:26:24.271Z,99424.88
2023-01-19T08:28:52.725Z,99403.34
2023-01-19T08:31:24.503Z,99416.59
2023-01-19T08:33:53.459Z,99414.25
2023-01-19T08:36:22.718Z,99432.84
2023-01-19T08:38:51.187Z,99425.28
2023-01-19T08:41:19.691Z,99435.94
2023-01-19T08:43:49.657Z,99431.50
2023-01-19T08:46:21.000Z,99433.34
2023-01-19T08:48:50.410Z,99452.22
2023-01-19T08:51:19.368Z,99440.06
2023-01-19T08:53:47.814Z,99449.22
2023-01-19T08:56:16.388Z,99442.38
2023-01-19T08:58:53.617Z,99452.63
2023-01-19T09:01:33.322Z,99449.75
2023-01-19T09:04:01.983Z,99453.84
2023-01-19T09:06:30.486Z,99440.81
2023-01-19T09:08:58.940Z,99452.56
2023-01-19T09:11:27.665Z,99453.41
2023-01-19T09:13:55.753Z,99445.38
2023-01-19T09:16:25.027Z,99443.91
2023-01-19T09:18:57.191Z,99447.69
2023-01-19T09:21:25.642Z,99440.69
2023-01-19T09:23:54.875Z,99435.00
2023-01-19T09:26:23.869Z,99451.84
2023-01-19T09:28:52.270Z,99448.50
2023-01-19T09:31:20.862Z,99460.38
2023-01-19T09:33:49.293Z,99446.03
2023-01-19T09:36:19.183Z,99446.66
2023-01-19T09:38:47.787Z,99449.09
2023-01-19T09:41:22.441Z,99450.59
2023-01-19T09:43:56.025Z,99446.78
2023-01-19T09:46:31.298Z,99423.63
2023-01-19T09:49:08.062Z,99410.84
2023-01-19T09:51:41.226Z,99413.59
2023-01-19T09:54:14.641Z,99401.69
2023-01-19T09:56:43.804Z,99399.31
2023-01-19T09:59:21.006Z,99428.50
2023-01-19T10:02:20.668Z,99433.56
2023-01-19T10:05:00.414Z,99418.22
2023-01-19T10:07:53.328Z,99421.97
2023-01-19T10:10:23.769Z,99411.88
2023-01-19T10:13:22.855Z,99417.41
2023-01-19T10:16:00.651Z,99421.34
2023-01-19T10:18:39.003Z,99428.84
2023-01-19T10:21:13.111Z,99427.78
2023-01-19T10:23:52.320Z,99421.19
2023-01-19T10:26:25.904Z,99439.31
2023-01-19T10:28:59.981Z,99424.22
2023-01-19T10:31:29.008Z,99413.13
2023-01-19T10:33:57.507Z,99420.38
2023-01-19T10:36:31.054Z,99424.00
2023-01-19T10:39:04.429Z,99433.41
2023-01-19T10:41:45.432Z,99420.88
2023-01-19T10:44:23.847Z,99437.44
2023-01-19T10:46:54.536Z,99445.94
2023-01-19T10:49:27.787Z,99421.06
2023-01-19T10:51:57.995Z,99410.59
2023-01-19T10:54:32.813Z,99416.53
2023-01-19T10:57:04.851Z,99433.31
2023-01-19T10:59:36.295Z,99431.19
2023-01-19T11:02:20.327Z,99421.31
2023-01-19T11:04:51.372Z,99416.78
2023-01-19T11:07:22.211Z,99436.88
2023-01-19T11:10:22.168Z,99428.28
2023-01-19T11:13:01.519Z,99432.53
2023-01-19T11:15:34.999Z,99438.19
2023-01-19T11:18:05.999Z,99421.63
2023-01-19T11:20:44.245Z,99441.97
2023-01-19T11:23:25.009Z,99428.69
2023-01-19T11:25:57.851Z,99451.31
2023-01-19T11:28:29.963Z,99458.31
2023-01-19T11:31:00.706Z,99452.41
2023-01-19T11:33:36.110Z,99456.59
2023-01-19T11:36:07.627Z,99466.94
2023-01-19T11:38:46.036Z,99467.19
2023-01-19T11:41:20.859Z,99471.06
2023-01-19T11:43:52.850Z,99480.47
2023-01-19T11:46:23.919Z,99477.84
2023-01-19T11:49:01.992Z,99460.47
2023-01-19T11:51:37.503Z,99470.19
2023-01-19T11:54:17.002Z,99467.72
2023-01-19T11:56:52.178Z,99475.84
2023-01-19T11:59:22.365Z,99492.09
2023-01-19T12:01:55.801Z,99480.72
2023-01-19T12:04:29.159Z,99500.28
2023-01-19T12:07:00.462Z,99509.38
2023-01-19T12:09:31.668Z,99500.63
2023-01-19T12:12:05.734Z,99494.41
2023-01-19T12:14:39.684Z,99484.06
2023-01-19T12:17:17.556Z,99475.78
2023-01-19T12:19:54.968Z,99488.13
2023-01-19T12:22:28.629Z,99486.97
2023-01-19T12:25:03.232Z,99489.31
2023-01-19T12:27:41.278Z,99500.50
2023-01-19T12:30:18.589Z,99503.00
2023-01-19T12:32:47.145Z,99513.19
2023-01-19T12:35:53.039Z,99525.47
2023-01-19T12:38:53.679Z,99511.91
2023-01-19T12:41:27.820Z,99534.81
2023-01-19T12:44:25.377Z,99530.13
2023-01-19T12:46:57.508Z,99520.81
2023-01-19T12:49:35.935Z,99541.81
2023-01-19T12:52:28.195Z,99514.38
2023-01-19T12:55:01.755Z,99526.78
2023-01-19T12:57:36.450Z,99527.31
2023-01-19T13:00:09.342Z,99531.69
2023-01-19T13:02:47.810Z,99529.91
2023-01-19T13:05:19.781Z,99527.09
2023-01-19T13:08:16.955Z,99529.28
2023-01-19T13:11:23.825Z,99525.50
2023-01-19T13:14:39.501Z,99513.50
2023-01-19T13:17:23.552Z,99509.47
2023-01-19T13:19:59.646Z,99502.97
2023-01-19T13:22:53.863Z,99516.69
2023-01-19T13:25:33.732Z,99533.34
2023-01-19T13:28:03.854Z,99510.25
2023-01-19T13:30:36.695Z,99497.53
2023-01-19T13:33:15.590Z,99512.63
2023-01-19T13:35:52.839Z,99518.75
2023-01-19T13:38:22.707Z,99525.38
2023-01-19T13:40:52.223Z,99510.69
2023-01-19T13:43:26.044Z,99524.31
2023-01-19T13:45:57.327Z,99526.34
2023-01-19T13:48:27.609Z,99534.44
2023-01-19T13:51:01.025Z,99530.47
2023-01-19T13:53:30.628Z,99514.03
2023-01-19T13:56:08.483Z,99525.69
2023-01-19T13:58:37.212Z,99518.69
2023-01-19T14:01:05.691Z,99511.53
2023-01-19T14:03:35.758Z,99519.28
2023-01-19T14:06:04.523Z,99519.56
2023-01-19T14:08:33.947Z,99528.13
2023-01-19T14:11:03.596Z,99518.59
2023-01-19T14:13:33.317Z,99521.50
2023-01-19T14:16:07.016Z,99515.69
2023-01-19T14:18:37.950Z,99534.25
2023-01-19T14:21:09.039Z,99526.31
2023-01-19T14:23:49.477Z,99544.94
2023-01-19T14:26:40.300Z,99533.78
2023-01-19T14:29:16.913Z,99549.94
2023-01-19T14:31:46.636Z,99567.03
2023-01-19T14:34:33.110Z,99583.34
2023-01-19T14:37:25.433Z,99579.78
2023-01-19T14:40:00.482Z,99576.72
2023-01-19T14:42:32.532Z,99579.38
2023-01-19T14:45:02.915Z,99559.66
2023-01-19T14:47:37.077Z,99561.78
2023-01-19T14:50:20.287Z,99561.91
2023-01-19T14:52:55.960Z,99563.06
2023-01-19T14:55:30.990Z,99568.38
2023-01-19T14:57:59.661Z,99566.91
2023-01-19T15:00:28.534Z,99552.72
2023-01-19T15:02:57.161Z,99582.72
2023-01-19T15:05:27.060Z,99580.50
2023-01-19T15:07:55.654Z,99577.38
2023-01-19T15:10:25.889Z,99581.50
2023-01-19T15:12:56.151Z,99573.34
2023-01-19T15:15:29.615Z,99586.16
2023-01-19T15:17:58.960Z,99570.44
2023-01-19T15:20:29.458Z,99563.75
2023-01-19T15:22:57.958Z,99543.97
2023-01-19T15:25:27.080Z,99525.84
2023-01-19T15:27:59.969Z,99526.13
2023-01-19T15:30:31.179Z,99522.91
2023-01-19T15:33:00.190Z,99513.09
2023-01-19T15:35:29.995Z,99526.50
2023-01-19T15:37:58.668Z,99521.25
2023-01-19T15:40:30.202Z,99537.06
2023-01-19T15:42:58.772Z,99562.19
2023-01-19T15:45:36.433Z,99578.00
2023-01-19T15:48:06.838Z,99586.50
2023-01-19T15:50:39.012Z,99571.81
2023-01-19T15:53:08.076Z,99537.72
2023-01-19T15:55:36.837Z,99549.31
2023-01-19T15:58:05.060Z,99558.75
2023-01-19T16:00:34.954Z,99542.56
2023-01-19T16:03:04.680Z,99534.56
2023-01-19T16:05:42.464Z,99524.56
2023-01-19T16:08:13.020Z,99530.75
2023-01-19T16:10:41.909Z,99528.00
2023-01-19T16:13:11.056Z,99507.16
2023-01-19T16:15:42.415Z,99519.09
2023-01-19T16:18:11.099Z,99518.38
2023-01-19T16:20:39.307Z,99516.22
2023-01-19T16:23:15.625Z,99520.22
2023-01-19T16:25:45.962Z,99510.16
2023-01-19T16:28:14.627Z,99509.28
2023-01-19T16:30:43.070Z,99521.44
2023-01-19T16:33:13.968Z,99506.28
2023-01-19T16:35:42.711Z,99513.88
2023-01-19T16:38:10.971Z,99515.06
2023-01-19T16:40:40.081Z,99522.88
2023-01-19T16:43:10.072Z,99510.16
2023-01-19T16:45:56.625Z,99518.00
2023-01-19T16:48:25.499Z,99508.09
2023-01-19T16:50:59.609Z,99505.81
2023-01-19T16:53:28.289Z,99502.56
2023-01-19T16:55:57.026Z,99507.41
2023-01-19T16:58:27.606Z,99490.03
2023-01-19T17:00:56.353Z,99511.75
2023-01-19T17:03:24.664Z,99520.53
2023-01-19T17:05:53.724Z,99502.28
2023-01-19T17:08:22.500Z,99503.25
2023-01-19T17:10:50.972Z,99500.44
2023-01-19T17:13:19.799Z,99474.09
2023-01-19T17:15:50.452Z,99466.91
2023-01-19T17:18:19.227Z,99483.06
2023-01-19T17:20:50.485Z,99494.69
2023-01-19T17:23:19.176Z,99483.06
2023-01-19T17:25:53.099Z,99486.13
2023-01-19T17:28:22.122Z,99468.41
2023-01-19T17:30:52.997Z,99483.28
2023-01-19T17:33:23.009Z,99476.72
2023-01-19T17:35:52.193Z,99478.06
2023-01-19T17:38:20.893Z,99471.50
2023-01-19T17:40:49.184Z,99456.75
2023-01-19T17:43:17.906Z,99462.69
2023-01-19T17:45:46.665Z,99470.53
2023-01-19T17:48:17.734Z,99476.56
2023-01-19T17:50:46.558Z,99455.28
2023-01-19T17:53:14.792Z,99473.97
2023-01-19T17:55:44.034Z,99488.13
2023-01-19T17:58:13.257Z,99490.47
2023-01-19T18:00:42.193Z,99484.94
2023-01-19T18:03:11.193Z,99467.06
2023-01-19T18:05:41.481Z,99462.69
2023-01-19T18:08:11.968Z,99476.69
2023-01-19T18:10:44.516Z,99481.91
2023-01-19T18:13:16.576Z,99486.97
2023-01-19T18:15:45.321Z,99482.06
2023-01-19T18:18:13.941Z,99495.38
2023-01-19T18:20:44.819Z,99499.91
2023-01-19T18:23:14.506Z,99494.81
2023-01-19T18:25:43.449Z,99494.13
2023-01-19T18:28:12.259Z,99489.16
2023-01-19T18:30:41.497Z,99480.97
2023-01-19T18:33:10.227Z,99471.03
2023-01-19T18:35:40.533Z,99478.03
2023-01-19T18:38:11.679Z,99479.28
2023-01-19T18:40:40.875Z,99465.00
2023-01-19T18:43:09.655Z,99470.59
2023-01-19T18:45:39.913Z,99454.44
2023-01-19T18:48:09.107Z,99472.25
2023-01-19T18:50:39.782Z,99470.53
2023-01-19T18:53:09.107Z,99468.91
2023-01-19T18:55:39.449Z,99473.75
2023-01-19T18:58:09.057Z,99460.22
2023-01-19T19:00:38.316Z,99455.75
2023-01-19T19:03:15.052Z,99460.25
2023-01-19T19:05:44.047Z,99466.03
2023-01-19T19:08:12.892Z,99451.16
2023-01-19T19:10:43.364Z,99450.03
2023-01-19T19:13:14.399Z,99434.03
2023-01-19T19:15:44.676Z,99440.53
2023-01-19T19:18:14.239Z,99429.53
2023-01-19T19:20:43.586Z,99432.19
2023-01-19T19:23:12.929Z,99438.03
2023-01-19T19:25:43.153Z,99442.53
2023-01-19T19:28:12.115Z,99448.28
2023-01-19T19:30:41.704Z,99452.41
2023-01-19T19:33:10.459Z,99455.19
2023-01-19T19:35:38.952Z,99454.28
2023-01-19T19:38:07.611Z,99445.31
2023-01-19T19:40:36.397Z,99432.34
2023-01-19T19:43:06.605Z,99448.66
2023-01-19T19:45:36.111Z,99446.34
2023-01-19T19:48:05.187Z,99452.00
2023-01-19T19:50:36.408Z,99455.50
2023-01-19T19:53:05.825Z,99457.91
2023-01-19T19:55:34.863Z,99472.44
2023-01-19T19:58:03.785Z,99455.78
2023-01-19T20:00:34.484Z,99457.75
2023-01-19T20:03:03.783Z,99465.31
2023-01-19T20:05:32.980Z,99470.66
2023-01-19T20:08:02.579Z,99458.28
2023-01-19T20:10:32.327Z,99460.28
2023-01-19T20:13:01.410Z,99467.78
2023-01-19T20:15:29.943Z,99468.38
2023-01-19T20:18:00.239Z,99477.94
2023-01-19T20:20:31.615Z,99470.22
2023-01-19T20:23:00.931Z,99476.84
2023-01-19T20:25:30.133Z,99467.59
2023-01-19T20:27:59.500Z,99463.00
2023-01-19T20:30:28.536Z,99472.28
2023-01-19T20:32:57.283Z,99460.03
2023-01-19T20:35:27.618Z,99446.16
2023-01-19T20:37:56.625Z,99443.38
2023-01-19T20:40:25.573Z,99440.19
2023-01-19T20:42:54.532Z,99437.66
2023-01-19T20:45:23.482Z,99436.56
2023-01-19T20:47:52.681Z,99418.63
2023-01-19T20:50:21.704Z,99423.97
2023-01-19T20:52:51.832Z,99431.97
2023-01-19T20:55:20.443Z,99426.56
2023-01-19T20:57:49.365Z,99442.00
2023-01-19T21:00:18.392Z,99439.53
2023-01-19T21:02:47.612Z,99442.63
2023-01-19T21:05:16.608Z,99427.91
2023-01-19T21:07:45.567Z,99447.38
2023-01-19T21:10:16.246Z,99447.44
2023-01-19T21:12:48.669Z,99460.28
2023-01-19T21:15:19.270Z,99454.16
2023-01-19T21:17:49.739Z,99442.31
2023-01-19T21:20:19.942Z,99445.66
2023-01-19T21:22:53.115Z,99432.78
2023-01-19T21:25:23.795Z,99454.88
2023-01-19T21:27:55.032Z,99455.56
2023-01-19T21:30:24.661Z,99445.09
2023-01-19T21:32:53.546Z,99432.69
2023-01-19T21:35:22.722Z,99433.22
2023-01-19T21:37:51.812Z,99435.19
2023-01-19T21:40:25.442Z,99433.47
2023-01-19T21:42:54.512Z,99456.00
2023-01-19T21:45:23.878Z,99433.34
2023-01-19T21:47:52.668Z,99450.59
2023-01-19T21:50:23.748Z,99441.19
2023-01-19T21:52:53.146Z,99446.59
2023-01-19T21:55:23.407Z,99452.72
2023-01-19T21:57:53.605Z,99443.72
2023-01-19T22:00:23.292Z,99432.78
2023-01-19T22:03:03.421Z,99419.88
2023-01-19T22:05:36.922Z,99430.19
2023-01-19T22:08:11.149Z,99426.94
2023-01-19T22:10:41.826Z,99412.78
2023-01-19T22:13:10.674Z,99407.47
2023-01-19T22:15:39.146Z,99419.31
2023-01-19T22:18:08.018Z,99424.69
2023-01-19T22:20:37.106Z,99419.66
2023-01-19T22:23:06.189Z,99427.44
2023-01-19T22:25:36.073Z,99414.66
2023-01-19T22:28:06.897Z,99413.38
2023-01-19T22:30:39.295Z,99415.75
2023-01-19T22:33:08.489Z,99427.22
2023-01-19T22:35:37.708Z,99418.63
2023-01-19T22:38:06.670Z,99401.06
2023-01-19T22:40:36.822Z,99412.31
2023-01-19T22:43:07.535Z,99416.69
2023-01-19T22:45:43.441Z,99410.16
2023-01-19T22:48:15.683Z,99413.47
2023-01-19T22:50:45.403Z,99420.44
2023-01-19T22:53:14.463Z,99415.16
2023-01-19T22:55:43.437Z,99420.88
2023-01-19T22:58:14.422Z,99424.25
2023-01-19T23:00:43.743Z,99418.66
2023-01-19T23:03:13.013Z,99418.91
2023-01-19T23:05:42.149Z,99422.84
2023-01-19T23:08:11.275Z,99422.38
2023-01-19T23:10:40.744Z,99428.72
2023-01-19T23:13:09.653Z,99427.16
2023-01-19T23:15:40.347Z,99423.31
2023-01-19T23:18:09.377Z,99420.84
2023-01-19T23:20:38.397Z,99415.00
2023-01-19T23:23:07.767Z,99428.06
2023-01-19T23:25:36.502Z,99428.03
2023-01-19T23:28:05.227Z,99437.00
2023-01-19T23:30:34.380Z,99445.25
2023-01-19T23:33:04.918Z,99448.44
2023-01-19T23:35:36.217Z,99439.44
2023-01-19T23:38:05.062Z,99443.19
2023-01-19T23:40:34.100Z,99450.03
2023-01-19T23:43:02.881Z,99452.81
2023-01-19T23:45:31.623Z,99443.97
2023-01-19T23:48:00.607Z,99437.41
2023-01-19T23:50:31.105Z,99442.81
2023-01-19T23:53:00.336Z,99443.19
2023-01-19T23:55:29.341Z,99444.31
2023-01-19T23:57:58.135Z,99423.63
